Flight Training


We provide structured training required to obtain a pilots certificate ranging from a Private Pilot up to ATP flying for the major airlines.

If your desire to fly is for personal pleasure the first step is to find a professional FAA licensed flight instructor to begin your journey.

The one-hour introductory flight with an instructor lasts one hour and features a log book and a six-month subscription to Flight Training magazine. After flying you to the training area, your instructor will let you test the controls. Call us now

 

Aviation Weather

Available data for KLDJ from the past 2 hours
LINDEN, NJ
Metar
KLDJ 250415Z AUTO 11008KT 10SM OVC026 18/15 A2994 RMK AO2 T01830147

04:15 UTC

Wind: 110° 8kt

Visibility: 10 SM

Sky: OVC 2600 ft

Temp: 18 deg C / 64.4 deg F

Dewpoint: 15 deg C / 59 deg F

Pressure: 29.94 inHg


Available data for KEWR from the past hour
NEWARK, NJ
TAF
KEWR 250231Z 2503/2606 08006KT P6SM BKN017 OVC050 FM250500 06004KT P6SM OVC012 FM251200 04008KT P6SM SCT015 OVC020 FM251900 05010KT P6SM OVC035 FM260300 05007KT P6SM BKN035

Our planes

Some of our students